Aeroporto :
LOGIN :

Iscrizione | Disclaimer

   EN    FR    IT 

 










Sommario :    VFR   VFR Marginale   IFR   IFR Intensivo   IFR Molto Intensivo
Visibilità : 
Base nubi : 
>= 8 km
>= 3000ft
5 / 8 km
1000 / 3000 ft
1500m / 5 km
500 / 1000 ft
800 / 1500m
200 / 500 ft
< 800m
< 200 ft
Simboli :   Temporali  Nebbia  Neve Forte  Precipitazioni Forti  Vento > 20 kt
SIGMETs :   Varie  Temporali  Ghiacco  Turbolenza  Onda orograficha  Ceneri Vulcaniche






- Altitudine del aeroporto : 2731 ft
- Codice IATA : LPY


LFHP - Le Puy Loudes

ULTIMO METAR :
  • 221230Z AUTO 15012G24KT 9999 BKN028 BKN035 OVC041 09/04 Q0999

METARs OBSOLETI :
  • 221200Z AUTO 15014KT 120V180 9999 SCT023 BKN030 BKN037 09/05 Q1000
  • 221130Z AUTO 15012G27KT 120V200 9999 SCT022 BKN029 BKN038 09/04 Q1000
  • 221100Z AUTO 15014KT 120V180 9999 BKN022 BKN027 BKN038 09/04 Q1001
  • 221030Z AUTO 15016G26KT 110V180 9999 OVC023 08/04 Q1002
  • 221000Z AUTO 14013KT 110V170 9999 BKN021 OVC028 07/04 Q1002

Previsioni scadute.



MetMap, La meteo Aeronautica in un colpo d'occhio ! - Copyright ORBIFLY Dicembre 2007 - Disclaimer

ORBIFLY MET'MAP TEAM :

Programmazione e sviluppo : Alexandra Zaïnal
Concezione e sviluppo : Baudouin d'Aumeries
Co-Programmazione e sviluppo : Marc-Olivier Méhu
Supporto tecnico e logistico : Manuel Goepfert
Aiuto per la traduzione : Arnaldo La Scala

Contatto : metmap@orbifly.com




FONTI E CREDITI :

   NOAA